sensor_id;sensor_type;location;lat;lon;timestamp;P1;durP1;ratioP1;P2;durP2;ratioP2
70467;SDS011;57934;51.532;7.684;2022-07-17T00:01:14;3.42;;;1.70;;
70467;SDS011;57934;51.532;7.684;2022-07-17T00:03:40;8.98;;;1.83;;
70467;SDS011;57934;51.532;7.684;2022-07-17T00:06:06;3.83;;;1.60;;
70467;SDS011;57934;51.532;7.684;2022-07-17T00:08:32;4.85;;;1.98;;
70467;SDS011;57934;51.532;7.684;2022-07-17T00:10:58;5.18;;;1.73;;
70467;SDS011;57934;51.532;7.684;2022-07-17T00:13:24;3.92;;;1.50;;
70467;SDS011;57934;51.532;7.684;2022-07-17T00:15:51;3.80;;;1.90;;
70467;SDS011;57934;51.532;7.684;2022-07-17T00:18:17;3.75;;;1.52;;
70467;SDS011;57934;51.532;7.684;2022-07-17T00:20:43;3.40;;;1.50;;
70467;SDS011;57934;51.532;7.684;2022-07-17T00:23:09;3.38;;;1.60;;
70467;SDS011;57934;51.532;7.684;2022-07-17T00:25:35;3.40;;;1.58;;
70467;SDS011;57934;51.532;7.684;2022-07-17T00:28:02;3.53;;;1.67;;
70467;SDS011;57934;51.532;7.684;2022-07-17T00:30:29;3.17;;;1.70;;
70467;SDS011;57934;51.532;7.684;2022-07-17T00:32:55;7.05;;;1.60;;
70467;SDS011;57934;51.532;7.684;2022-07-17T00:35:21;6.80;;;1.60;;
70467;SDS011;57934;51.532;7.684;2022-07-17T00:37:48;3.92;;;1.77;;
70467;SDS011;57934;51.532;7.684;2022-07-17T00:40:18;5.82;;;1.88;;
70467;SDS011;57934;51.532;7.684;2022-07-17T00:42:46;6.18;;;1.50;;
70467;SDS011;57934;51.532;7.684;2022-07-17T00:45:13;5.78;;;1.83;;
70467;SDS011;57934;51.532;7.684;2022-07-17T00:47:50;4.93;;;1.90;;
70467;SDS011;57934;51.532;7.684;2022-07-17T00:50:23;2.08;;;1.50;;
70467;SDS011;57934;51.532;7.684;2022-07-17T00:52:50;5.20;;;1.48;;
70467;SDS011;57934;51.532;7.684;2022-07-17T00:55:17;5.80;;;1.90;;
70467;SDS011;57934;51.532;7.684;2022-07-17T00:57:45;4.88;;;1.95;;
70467;SDS011;57934;51.532;7.684;2022-07-17T01:00:13;3.30;;;1.50;;
70467;SDS011;57934;51.532;7.684;2022-07-17T01:02:40;2.53;;;1.50;;
70467;SDS011;57934;51.532;7.684;2022-07-17T01:05:06;3.65;;;1.80;;
70467;SDS011;57934;51.532;7.684;2022-07-17T01:07:32;3.83;;;1.70;;
70467;SDS011;57934;51.532;7.684;2022-07-17T01:09:58;2.75;;;1.90;;
70467;SDS011;57934;51.532;7.684;2022-07-17T01:12:25;4.50;;;1.75;;
70467;SDS011;57934;51.532;7.684;2022-07-17T01:14:52;6.85;;;2.15;;
70467;SDS011;57934;51.532;7.684;2022-07-17T01:17:18;5.43;;;1.50;;
70467;SDS011;57934;51.532;7.684;2022-07-17T01:19:44;5.28;;;1.92;;
70467;SDS011;57934;51.532;7.684;2022-07-17T01:22:10;7.18;;;1.95;;
70467;SDS011;57934;51.532;7.684;2022-07-17T01:24:40;4.90;;;1.50;;
70467;SDS011;57934;51.532;7.684;2022-07-17T01:27:07;4.97;;;1.75;;
70467;SDS011;57934;51.532;7.684;2022-07-17T01:29:35;3.70;;;1.63;;
70467;SDS011;57934;51.532;7.684;2022-07-17T01:32:02;6.22;;;1.58;;
70467;SDS011;57934;51.532;7.684;2022-07-17T01:34:28;6.30;;;1.83;;
70467;SDS011;57934;51.532;7.684;2022-07-17T01:36:55;8.73;;;2.42;;
70467;SDS011;57934;51.532;7.684;2022-07-17T01:39:21;4.85;;;1.65;;
70467;SDS011;57934;51.532;7.684;2022-07-17T01:42:07;5.30;;;1.73;;
70467;SDS011;57934;51.532;7.684;2022-07-17T01:44:33;2.80;;;1.33;;
70467;SDS011;57934;51.532;7.684;2022-07-17T01:46:59;4.97;;;1.80;;
70467;SDS011;57934;51.532;7.684;2022-07-17T01:49:25;3.47;;;1.63;;
70467;SDS011;57934;51.532;7.684;2022-07-17T01:51:51;4.82;;;1.55;;
70467;SDS011;57934;51.532;7.684;2022-07-17T01:54:17;6.97;;;2.20;;
70467;SDS011;57934;51.532;7.684;2022-07-17T01:56:43;7.00;;;1.65;;
70467;SDS011;57934;51.532;7.684;2022-07-17T01:59:09;2.47;;;1.27;;
70467;SDS011;57934;51.532;7.684;2022-07-17T02:01:37;4.22;;;1.50;;
70467;SDS011;57934;51.532;7.684;2022-07-17T02:04:03;5.10;;;1.80;;
70467;SDS011;57934;51.532;7.684;2022-07-17T02:06:29;6.63;;;1.83;;
70467;SDS011;57934;51.532;7.684;2022-07-17T02:08:55;5.90;;;1.80;;
70467;SDS011;57934;51.532;7.684;2022-07-17T02:11:21;4.32;;;1.60;;
70467;SDS011;57934;51.532;7.684;2022-07-17T02:13:47;7.57;;;1.83;;
70467;SDS011;57934;51.532;7.684;2022-07-17T02:16:13;7.88;;;1.73;;
70467;SDS011;57934;51.532;7.684;2022-07-17T02:18:39;6.68;;;1.58;;
70467;SDS011;57934;51.532;7.684;2022-07-17T02:21:05;5.63;;;1.60;;
70467;SDS011;57934;51.532;7.684;2022-07-17T02:23:31;2.88;;;1.30;;
70467;SDS011;57934;51.532;7.684;2022-07-17T02:25:57;6.00;;;1.50;;
70467;SDS011;57934;51.532;7.684;2022-07-17T02:28:23;6.32;;;1.48;;
70467;SDS011;57934;51.532;7.684;2022-07-17T02:30:49;6.60;;;1.80;;
70467;SDS011;57934;51.532;7.684;2022-07-17T02:33:15;8.38;;;1.83;;
70467;SDS011;57934;51.532;7.684;2022-07-17T02:35:41;4.13;;;1.85;;
70467;SDS011;57934;51.532;7.684;2022-07-17T02:38:07;3.10;;;1.35;;
70467;SDS011;57934;51.532;7.684;2022-07-17T02:40:33;6.53;;;1.73;;
70467;SDS011;57934;51.532;7.684;2022-07-17T02:42:59;5.68;;;1.52;;
70467;SDS011;57934;51.532;7.684;2022-07-17T02:45:25;3.85;;;1.50;;
70467;SDS011;57934;51.532;7.684;2022-07-17T02:47:51;9.15;;;1.95;;
70467;SDS011;57934;51.532;7.684;2022-07-17T02:50:19;6.18;;;2.35;;
70467;SDS011;57934;51.532;7.684;2022-07-17T02:52:45;8.55;;;1.90;;
70467;SDS011;57934;51.532;7.684;2022-07-17T02:55:11;4.38;;;1.63;;
70467;SDS011;57934;51.532;7.684;2022-07-17T02:57:37;6.95;;;1.98;;
70467;SDS011;57934;51.532;7.684;2022-07-17T03:00:05;3.60;;;1.70;;
70467;SDS011;57934;51.532;7.684;2022-07-17T03:02:33;5.50;;;1.65;;
70467;SDS011;57934;51.532;7.684;2022-07-17T03:04:59;10.52;;;2.15;;
70467;SDS011;57934;51.532;7.684;2022-07-17T03:07:25;8.82;;;1.80;;
70467;SDS011;57934;51.532;7.684;2022-07-17T03:09:51;4.20;;;1.75;;
70467;SDS011;57934;51.532;7.684;2022-07-17T03:12:17;4.18;;;1.70;;
70467;SDS011;57934;51.532;7.684;2022-07-17T03:14:43;2.92;;;1.80;;
70467;SDS011;57934;51.532;7.684;2022-07-17T03:17:09;7.63;;;2.30;;
70467;SDS011;57934;51.532;7.684;2022-07-17T03:19:35;6.03;;;2.30;;
70467;SDS011;57934;51.532;7.684;2022-07-17T03:22:01;5.75;;;2.45;;
70467;SDS011;57934;51.532;7.684;2022-07-17T03:24:27;4.10;;;1.88;;
70467;SDS011;57934;51.532;7.684;2022-07-17T03:26:53;3.53;;;2.00;;
70467;SDS011;57934;51.532;7.684;2022-07-17T03:29:19;5.00;;;2.10;;
70467;SDS011;57934;51.532;7.684;2022-07-17T03:31:45;7.47;;;2.00;;
70467;SDS011;57934;51.532;7.684;2022-07-17T03:34:12;5.72;;;2.22;;
70467;SDS011;57934;51.532;7.684;2022-07-17T03:36:39;5.47;;;2.10;;
70467;SDS011;57934;51.532;7.684;2022-07-17T03:39:05;7.30;;;2.05;;
70467;SDS011;57934;51.532;7.684;2022-07-17T03:41:32;5.93;;;2.10;;
70467;SDS011;57934;51.532;7.684;2022-07-17T03:43:58;5.00;;;2.05;;
70467;SDS011;57934;51.532;7.684;2022-07-17T03:46:24;4.00;;;2.00;;
70467;SDS011;57934;51.532;7.684;2022-07-17T03:48:50;7.03;;;2.55;;
70467;SDS011;57934;51.532;7.684;2022-07-17T03:51:16;7.97;;;2.08;;
70467;SDS011;57934;51.532;7.684;2022-07-17T03:53:42;10.18;;;2.25;;
70467;SDS011;57934;51.532;7.684;2022-07-17T03:56:08;3.88;;;1.92;;
70467;SDS011;57934;51.532;7.684;2022-07-17T03:58:34;7.45;;;2.03;;
70467;SDS011;57934;51.532;7.684;2022-07-17T04:01:00;5.10;;;1.85;;
70467;SDS011;57934;51.532;7.684;2022-07-17T04:03:26;3.92;;;1.95;;
70467;SDS011;57934;51.532;7.684;2022-07-17T04:05:52;5.05;;;2.13;;
70467;SDS011;57934;51.532;7.684;2022-07-17T04:08:18;6.43;;;2.00;;
70467;SDS011;57934;51.532;7.684;2022-07-17T04:10:44;3.97;;;1.88;;
70467;SDS011;57934;51.532;7.684;2022-07-17T04:13:10;8.65;;;2.20;;
70467;SDS011;57934;51.532;7.684;2022-07-17T04:15:36;5.75;;;1.80;;
70467;SDS011;57934;51.532;7.684;2022-07-17T04:18:16;5.38;;;1.90;;
70467;SDS011;57934;51.532;7.684;2022-07-17T04:20:42;5.20;;;2.03;;
70467;SDS011;57934;51.532;7.684;2022-07-17T04:23:08;8.07;;;2.05;;
70467;SDS011;57934;51.532;7.684;2022-07-17T04:25:34;3.83;;;2.00;;
70467;SDS011;57934;51.532;7.684;2022-07-17T04:28:00;4.20;;;1.67;;
70467;SDS011;57934;51.532;7.684;2022-07-17T04:30:26;5.47;;;1.67;;
70467;SDS011;57934;51.532;7.684;2022-07-17T04:32:52;2.90;;;2.05;;
70467;SDS011;57934;51.532;7.684;2022-07-17T04:35:18;5.28;;;1.80;;
70467;SDS011;57934;51.532;7.684;2022-07-17T04:37:44;3.25;;;1.80;;
70467;SDS011;57934;51.532;7.684;2022-07-17T04:40:11;5.45;;;1.90;;
70467;SDS011;57934;51.532;7.684;2022-07-17T04:42:37;7.13;;;2.08;;
70467;SDS011;57934;51.532;7.684;2022-07-17T04:45:04;3.35;;;1.77;;
70467;SDS011;57934;51.532;7.684;2022-07-17T04:47:30;8.15;;;2.60;;
70467;SDS011;57934;51.532;7.684;2022-07-17T04:49:57;4.90;;;2.10;;
70467;SDS011;57934;51.532;7.684;2022-07-17T04:52:23;5.35;;;1.98;;
70467;SDS011;57934;51.532;7.684;2022-07-17T04:54:49;6.72;;;2.33;;
70467;SDS011;57934;51.532;7.684;2022-07-17T04:57:15;6.10;;;1.80;;
70467;SDS011;57934;51.532;7.684;2022-07-17T04:59:40;10.73;;;2.55;;
70467;SDS011;57934;51.532;7.684;2022-07-17T05:02:06;3.67;;;1.90;;
70467;SDS011;57934;51.532;7.684;2022-07-17T05:04:32;5.18;;;1.80;;
70467;SDS011;57934;51.532;7.684;2022-07-17T05:06:58;7.18;;;1.90;;
70467;SDS011;57934;51.532;7.684;2022-07-17T05:09:24;4.95;;;1.95;;
70467;SDS011;57934;51.532;7.684;2022-07-17T05:11:51;5.75;;;1.70;;
70467;SDS011;57934;51.532;7.684;2022-07-17T05:14:17;5.55;;;2.35;;
70467;SDS011;57934;51.532;7.684;2022-07-17T05:16:43;10.38;;;2.10;;
70467;SDS011;57934;51.532;7.684;2022-07-17T05:19:09;7.30;;;1.77;;
70467;SDS011;57934;51.532;7.684;2022-07-17T05:21:35;4.57;;;1.50;;
70467;SDS011;57934;51.532;7.684;2022-07-17T05:24:01;9.30;;;2.10;;
70467;SDS011;57934;51.532;7.684;2022-07-17T05:26:27;6.18;;;2.38;;
70467;SDS011;57934;51.532;7.684;2022-07-17T05:28:53;6.20;;;1.90;;
70467;SDS011;57934;51.532;7.684;2022-07-17T05:31:19;5.25;;;1.70;;
70467;SDS011;57934;51.532;7.684;2022-07-17T05:33:45;6.38;;;1.80;;
70467;SDS011;57934;51.532;7.684;2022-07-17T05:36:11;5.55;;;1.60;;
70467;SDS011;57934;51.532;7.684;2022-07-17T05:38:37;6.18;;;2.00;;
70467;SDS011;57934;51.532;7.684;2022-07-17T05:41:03;3.17;;;1.63;;
70467;SDS011;57934;51.532;7.684;2022-07-17T05:43:30;4.57;;;1.92;;
70467;SDS011;57934;51.532;7.684;2022-07-17T05:45:56;9.55;;;2.13;;
70467;SDS011;57934;51.532;7.684;2022-07-17T05:48:24;6.35;;;1.65;;
70467;SDS011;57934;51.532;7.684;2022-07-17T05:50:50;4.82;;;2.22;;
70467;SDS011;57934;51.532;7.684;2022-07-17T05:53:16;7.32;;;2.00;;
70467;SDS011;57934;51.532;7.684;2022-07-17T05:55:42;3.72;;;1.42;;
70467;SDS011;57934;51.532;7.684;2022-07-17T05:58:08;4.35;;;1.70;;
70467;SDS011;57934;51.532;7.684;2022-07-17T06:00:35;4.40;;;1.77;;
70467;SDS011;57934;51.532;7.684;2022-07-17T06:03:02;5.13;;;1.88;;
70467;SDS011;57934;51.532;7.684;2022-07-17T06:05:29;6.70;;;1.70;;
70467;SDS011;57934;51.532;7.684;2022-07-17T06:07:55;3.85;;;1.88;;
70467;SDS011;57934;51.532;7.684;2022-07-17T06:10:23;7.28;;;1.77;;
70467;SDS011;57934;51.532;7.684;2022-07-17T06:12:49;6.63;;;2.03;;
70467;SDS011;57934;51.532;7.684;2022-07-17T06:15:18;5.68;;;1.58;;
70467;SDS011;57934;51.532;7.684;2022-07-17T06:17:44;3.17;;;1.70;;
70467;SDS011;57934;51.532;7.684;2022-07-17T06:20:11;4.07;;;1.55;;
70467;SDS011;57934;51.532;7.684;2022-07-17T06:22:38;5.50;;;1.70;;
70467;SDS011;57934;51.532;7.684;2022-07-17T06:25:05;7.40;;;1.92;;
70467;SDS011;57934;51.532;7.684;2022-07-17T06:27:31;6.32;;;2.03;;
70467;SDS011;57934;51.532;7.684;2022-07-17T06:29:58;7.40;;;1.92;;
70467;SDS011;57934;51.532;7.684;2022-07-17T06:32:24;5.50;;;1.92;;
70467;SDS011;57934;51.532;7.684;2022-07-17T06:34:50;3.38;;;1.75;;
70467;SDS011;57934;51.532;7.684;2022-07-17T06:37:16;6.05;;;1.67;;
70467;SDS011;57934;51.532;7.684;2022-07-17T06:39:42;5.57;;;1.88;;
70467;SDS011;57934;51.532;7.684;2022-07-17T06:42:08;4.43;;;1.77;;
70467;SDS011;57934;51.532;7.684;2022-07-17T06:44:36;8.27;;;2.20;;
70467;SDS011;57934;51.532;7.684;2022-07-17T06:47:02;5.35;;;1.73;;
70467;SDS011;57934;51.532;7.684;2022-07-17T06:49:29;11.05;;;1.95;;
70467;SDS011;57934;51.532;7.684;2022-07-17T06:51:55;6.38;;;1.85;;
70467;SDS011;57934;51.532;7.684;2022-07-17T06:54:21;10.15;;;2.75;;
70467;SDS011;57934;51.532;7.684;2022-07-17T06:56:52;7.47;;;2.13;;
70467;SDS011;57934;51.532;7.684;2022-07-17T06:59:18;7.88;;;2.00;;
70467;SDS011;57934;51.532;7.684;2022-07-17T07:01:44;9.77;;;1.95;;
70467;SDS011;57934;51.532;7.684;2022-07-17T07:04:10;5.88;;;1.63;;
70467;SDS011;57934;51.532;7.684;2022-07-17T07:06:36;6.07;;;1.50;;
70467;SDS011;57934;51.532;7.684;2022-07-17T07:09:03;4.97;;;1.95;;
70467;SDS011;57934;51.532;7.684;2022-07-17T07:11:29;3.42;;;1.63;;
70467;SDS011;57934;51.532;7.684;2022-07-17T07:13:55;5.13;;;1.70;;
70467;SDS011;57934;51.532;7.684;2022-07-17T07:16:21;6.63;;;2.40;;
70467;SDS011;57934;51.532;7.684;2022-07-17T07:18:47;5.30;;;1.75;;
70467;SDS011;57934;51.532;7.684;2022-07-17T07:21:13;5.97;;;2.10;;
70467;SDS011;57934;51.532;7.684;2022-07-17T07:23:39;4.90;;;1.55;;
70467;SDS011;57934;51.532;7.684;2022-07-17T07:26:05;3.75;;;1.50;;
70467;SDS011;57934;51.532;7.684;2022-07-17T07:28:31;4.57;;;1.35;;
70467;SDS011;57934;51.532;7.684;2022-07-17T07:30:57;3.38;;;1.65;;
70467;SDS011;57934;51.532;7.684;2022-07-17T07:33:23;6.45;;;2.22;;
70467;SDS011;57934;51.532;7.684;2022-07-17T07:35:49;5.40;;;1.60;;
70467;SDS011;57934;51.532;7.684;2022-07-17T07:38:15;6.53;;;1.60;;
70467;SDS011;57934;51.532;7.684;2022-07-17T07:40:41;3.83;;;1.20;;
70467;SDS011;57934;51.532;7.684;2022-07-17T07:43:07;3.05;;;1.63;;
70467;SDS011;57934;51.532;7.684;2022-07-17T07:45:33;3.17;;;1.40;;
70467;SDS011;57934;51.532;7.684;2022-07-17T07:48:00;4.18;;;1.63;;
70467;SDS011;57934;51.532;7.684;2022-07-17T07:50:26;6.57;;;1.60;;
70467;SDS011;57934;51.532;7.684;2022-07-17T07:52:54;5.75;;;1.25;;
70467;SDS011;57934;51.532;7.684;2022-07-17T07:55:20;4.82;;;1.27;;
70467;SDS011;57934;51.532;7.684;2022-07-17T07:57:49;3.50;;;1.50;;
70467;SDS011;57934;51.532;7.684;2022-07-17T08:00:27;4.25;;;1.48;;
70467;SDS011;57934;51.532;7.684;2022-07-17T08:02:53;8.75;;;1.48;;
70467;SDS011;57934;51.532;7.684;2022-07-17T08:05:19;6.43;;;1.65;;
70467;SDS011;57934;51.532;7.684;2022-07-17T08:07:45;4.70;;;1.67;;
70467;SDS011;57934;51.532;7.684;2022-07-17T08:10:11;5.28;;;2.05;;
70467;SDS011;57934;51.532;7.684;2022-07-17T08:12:37;5.47;;;1.83;;
70467;SDS011;57934;51.532;7.684;2022-07-17T08:15:04;6.50;;;1.60;;
70467;SDS011;57934;51.532;7.684;2022-07-17T08:17:30;3.13;;;1.30;;
70467;SDS011;57934;51.532;7.684;2022-07-17T08:19:56;4.13;;;1.58;;
70467;SDS011;57934;51.532;7.684;2022-07-17T08:22:22;3.80;;;1.50;;
70467;SDS011;57934;51.532;7.684;2022-07-17T08:24:48;3.80;;;1.60;;
70467;SDS011;57934;51.532;7.684;2022-07-17T08:27:14;5.40;;;1.50;;
70467;SDS011;57934;51.532;7.684;2022-07-17T08:29:40;4.57;;;1.60;;
70467;SDS011;57934;51.532;7.684;2022-07-17T08:32:06;5.68;;;1.35;;
70467;SDS011;57934;51.532;7.684;2022-07-17T08:34:32;3.38;;;1.30;;
70467;SDS011;57934;51.532;7.684;2022-07-17T08:36:58;5.20;;;1.45;;
70467;SDS011;57934;51.532;7.684;2022-07-17T08:39:24;3.88;;;1.30;;
70467;SDS011;57934;51.532;7.684;2022-07-17T08:41:50;3.72;;;1.35;;
70467;SDS011;57934;51.532;7.684;2022-07-17T08:44:17;10.32;;;1.70;;
70467;SDS011;57934;51.532;7.684;2022-07-17T08:46:43;7.20;;;1.60;;
70467;SDS011;57934;51.532;7.684;2022-07-17T08:49:09;5.93;;;1.23;;
70467;SDS011;57934;51.532;7.684;2022-07-17T08:51:37;4.75;;;1.60;;
70467;SDS011;57934;51.532;7.684;2022-07-17T08:54:03;4.50;;;2.38;;
70467;SDS011;57934;51.532;7.684;2022-07-17T08:56:29;4.70;;;2.25;;
70467;SDS011;57934;51.532;7.684;2022-07-17T08:58:55;5.93;;;2.50;;
70467;SDS011;57934;51.532;7.684;2022-07-17T09:01:22;5.18;;;2.28;;
70467;SDS011;57934;51.532;7.684;2022-07-17T09:03:56;4.53;;;1.58;;
70467;SDS011;57934;51.532;7.684;2022-07-17T09:06:23;4.13;;;1.45;;
70467;SDS011;57934;51.532;7.684;2022-07-17T09:09:09;4.43;;;1.45;;
70467;SDS011;57934;51.532;7.684;2022-07-17T09:11:40;5.05;;;1.77;;
70467;SDS011;57934;51.532;7.684;2022-07-17T09:14:10;6.88;;;1.38;;
70467;SDS011;57934;51.532;7.684;2022-07-17T09:16:46;4.30;;;1.38;;
70467;SDS011;57934;51.532;7.684;2022-07-17T09:19:37;3.72;;;1.70;;
70467;SDS011;57934;51.532;7.684;2022-07-17T09:22:06;2.22;;;1.00;;
70467;SDS011;57934;51.532;7.684;2022-07-17T09:24:51;4.40;;;1.35;;
70467;SDS011;57934;51.532;7.684;2022-07-17T09:29:54;6.90;;;1.42;;
70467;SDS011;57934;51.532;7.684;2022-07-17T09:32:23;4.70;;;1.27;;
70467;SDS011;57934;51.532;7.684;2022-07-17T09:34:52;1.98;;;1.30;;
70467;SDS011;57934;51.532;7.684;2022-07-17T09:37:21;4.28;;;1.60;;
70467;SDS011;57934;51.532;7.684;2022-07-17T09:39:47;3.63;;;1.13;;
70467;SDS011;57934;51.532;7.684;2022-07-17T09:42:21;5.50;;;1.58;;
70467;SDS011;57934;51.532;7.684;2022-07-17T09:44:56;6.68;;;1.70;;
70467;SDS011;57934;51.532;7.684;2022-07-17T09:47:23;2.97;;;1.25;;
70467;SDS011;57934;51.532;7.684;2022-07-17T09:49:53;2.40;;;1.20;;
70467;SDS011;57934;51.532;7.684;2022-07-17T09:52:24;5.20;;;1.50;;
70467;SDS011;57934;51.532;7.684;2022-07-17T09:54:54;4.03;;;1.50;;
70467;SDS011;57934;51.532;7.684;2022-07-17T09:57:22;3.78;;;1.40;;
70467;SDS011;57934;51.532;7.684;2022-07-17T09:59:52;5.15;;;1.40;;
70467;SDS011;57934;51.532;7.684;2022-07-17T10:02:19;4.55;;;1.20;;
70467;SDS011;57934;51.532;7.684;2022-07-17T10:04:46;2.60;;;1.30;;
70467;SDS011;57934;51.532;7.684;2022-07-17T10:07:13;3.53;;;1.38;;
70467;SDS011;57934;51.532;7.684;2022-07-17T10:09:39;3.17;;;1.20;;
70467;SDS011;57934;51.532;7.684;2022-07-17T10:12:06;4.07;;;1.60;;
70467;SDS011;57934;51.532;7.684;2022-07-17T10:14:33;5.40;;;1.50;;
70467;SDS011;57934;51.532;7.684;2022-07-17T10:17:07;3.13;;;1.30;;
70467;SDS011;57934;51.532;7.684;2022-07-17T10:19:43;6.05;;;1.30;;
70467;SDS011;57934;51.532;7.684;2022-07-17T10:24:50;4.80;;;1.55;;
70467;SDS011;57934;51.532;7.684;2022-07-17T10:27:19;4.28;;;1.50;;
70467;SDS011;57934;51.532;7.684;2022-07-17T10:29:46;5.63;;;1.42;;
70467;SDS011;57934;51.532;7.684;2022-07-17T10:32:17;6.63;;;1.58;;
70467;SDS011;57934;51.532;7.684;2022-07-17T10:34:48;6.10;;;1.63;;
70467;SDS011;57934;51.532;7.684;2022-07-17T10:39:51;2.42;;;1.20;;
70467;SDS011;57934;51.532;7.684;2022-07-17T10:42:38;4.38;;;1.17;;
70467;SDS011;57934;51.532;7.684;2022-07-17T10:45:08;4.82;;;1.60;;
70467;SDS011;57934;51.532;7.684;2022-07-17T10:48:10;3.33;;;1.15;;
70467;SDS011;57934;51.532;7.684;2022-07-17T10:53:03;3.67;;;1.00;;
70467;SDS011;57934;51.532;7.684;2022-07-17T10:55:32;5.30;;;1.50;;
70467;SDS011;57934;51.532;7.684;2022-07-17T10:57:59;6.60;;;1.25;;
70467;SDS011;57934;51.532;7.684;2022-07-17T11:00:25;2.30;;;1.05;;
70467;SDS011;57934;51.532;7.684;2022-07-17T11:02:51;2.63;;;1.00;;
70467;SDS011;57934;51.532;7.684;2022-07-17T11:05:18;4.97;;;3.00;;
70467;SDS011;57934;51.532;7.684;2022-07-17T11:07:57;4.30;;;1.80;;
70467;SDS011;57934;51.532;7.684;2022-07-17T11:10:25;4.47;;;1.60;;
70467;SDS011;57934;51.532;7.684;2022-07-17T11:12:53;3.55;;;1.13;;
70467;SDS011;57934;51.532;7.684;2022-07-17T11:15:21;4.43;;;1.48;;
70467;SDS011;57934;51.532;7.684;2022-07-17T11:17:48;2.58;;;1.40;;
70467;SDS011;57934;51.532;7.684;2022-07-17T11:20:15;2.40;;;1.30;;
70467;SDS011;57934;51.532;7.684;2022-07-17T11:22:42;4.13;;;1.15;;
70467;SDS011;57934;51.532;7.684;2022-07-17T11:25:09;5.00;;;1.55;;
70467;SDS011;57934;51.532;7.684;2022-07-17T11:27:37;3.92;;;1.40;;
70467;SDS011;57934;51.532;7.684;2022-07-17T11:30:04;6.53;;;1.30;;
70467;SDS011;57934;51.532;7.684;2022-07-17T11:32:34;4.78;;;1.08;;
70467;SDS011;57934;51.532;7.684;2022-07-17T11:35:01;1.38;;;0.80;;
70467;SDS011;57934;51.532;7.684;2022-07-17T11:37:30;3.38;;;1.23;;
70467;SDS011;57934;51.532;7.684;2022-07-17T11:39:56;2.75;;;1.10;;
70467;SDS011;57934;51.532;7.684;2022-07-17T11:42:23;3.55;;;1.42;;
70467;SDS011;57934;51.532;7.684;2022-07-17T11:44:49;5.05;;;1.60;;
70467;SDS011;57934;51.532;7.684;2022-07-17T11:47:22;2.88;;;1.10;;
70467;SDS011;57934;51.532;7.684;2022-07-17T11:49:50;3.38;;;1.15;;
70467;SDS011;57934;51.532;7.684;2022-07-17T11:52:17;2.92;;;1.00;;
70467;SDS011;57934;51.532;7.684;2022-07-17T11:54:46;2.97;;;1.20;;
70467;SDS011;57934;51.532;7.684;2022-07-17T11:57:23;3.30;;;1.08;;
70467;SDS011;57934;51.532;7.684;2022-07-17T11:59:51;2.38;;;1.10;;
70467;SDS011;57934;51.532;7.684;2022-07-17T12:02:19;3.63;;;1.10;;
70467;SDS011;57934;51.532;7.684;2022-07-17T12:07:27;3.22;;;1.10;;
70467;SDS011;57934;51.532;7.684;2022-07-17T12:10:15;4.63;;;1.50;;
70467;SDS011;57934;51.532;7.684;2022-07-17T12:16:01;5.10;;;1.50;;
70467;SDS011;57934;51.532;7.684;2022-07-17T12:20:50;4.38;;;1.10;;
70467;SDS011;57934;51.532;7.684;2022-07-17T12:23:33;4.32;;;1.17;;
70467;SDS011;57934;51.532;7.684;2022-07-17T12:26:14;5.75;;;1.50;;
70467;SDS011;57934;51.532;7.684;2022-07-17T12:28:43;6.10;;;1.73;;
70467;SDS011;57934;51.532;7.684;2022-07-17T12:31:09;3.72;;;0.90;;
70467;SDS011;57934;51.532;7.684;2022-07-17T12:33:37;1.80;;;0.90;;
70467;SDS011;57934;51.532;7.684;2022-07-17T12:36:04;4.68;;;1.20;;
70467;SDS011;57934;51.532;7.684;2022-07-17T12:38:30;3.42;;;1.05;;
70467;SDS011;57934;51.532;7.684;2022-07-17T12:40:56;4.35;;;1.00;;
70467;SDS011;57934;51.532;7.684;2022-07-17T12:43:23;4.05;;;1.13;;
70467;SDS011;57934;51.532;7.684;2022-07-17T12:45:50;1.60;;;1.00;;
70467;SDS011;57934;51.532;7.684;2022-07-17T12:48:16;2.83;;;0.93;;
70467;SDS011;57934;51.532;7.684;2022-07-17T12:50:42;2.70;;;1.10;;
70467;SDS011;57934;51.532;7.684;2022-07-17T12:53:08;3.75;;;1.55;;
70467;SDS011;57934;51.532;7.684;2022-07-17T12:55:34;3.08;;;1.13;;
70467;SDS011;57934;51.532;7.684;2022-07-17T12:58:03;1.83;;;0.90;;
70467;SDS011;57934;51.532;7.684;2022-07-17T13:00:30;3.15;;;1.00;;
70467;SDS011;57934;51.532;7.684;2022-07-17T13:02:56;2.05;;;0.80;;
70467;SDS011;57934;51.532;7.684;2022-07-17T13:05:22;4.82;;;1.08;;
70467;SDS011;57934;51.532;7.684;2022-07-17T13:07:48;4.18;;;1.20;;
70467;SDS011;57934;51.532;7.684;2022-07-17T13:10:15;3.17;;;0.80;;
70467;SDS011;57934;51.532;7.684;2022-07-17T13:12:41;2.25;;;1.02;;
70467;SDS011;57934;51.532;7.684;2022-07-17T13:15:08;2.63;;;0.90;;
70467;SDS011;57934;51.532;7.684;2022-07-17T13:17:34;2.80;;;1.10;;
70467;SDS011;57934;51.532;7.684;2022-07-17T13:20:02;3.17;;;1.10;;
70467;SDS011;57934;51.532;7.684;2022-07-17T13:22:30;4.43;;;0.98;;
70467;SDS011;57934;51.532;7.684;2022-07-17T13:24:56;3.30;;;1.38;;
70467;SDS011;57934;51.532;7.684;2022-07-17T13:27:22;3.03;;;1.08;;
70467;SDS011;57934;51.532;7.684;2022-07-17T13:29:48;4.30;;;1.20;;
70467;SDS011;57934;51.532;7.684;2022-07-17T13:32:14;6.30;;;1.10;;
70467;SDS011;57934;51.532;7.684;2022-07-17T13:34:40;3.75;;;1.10;;
70467;SDS011;57934;51.532;7.684;2022-07-17T13:37:06;2.60;;;0.90;;
70467;SDS011;57934;51.532;7.684;2022-07-17T13:39:34;3.63;;;1.20;;
70467;SDS011;57934;51.532;7.684;2022-07-17T13:42:01;2.33;;;1.00;;
70467;SDS011;57934;51.532;7.684;2022-07-17T13:44:28;5.95;;;1.20;;
70467;SDS011;57934;51.532;7.684;2022-07-17T13:46:54;1.95;;;1.10;;
70467;SDS011;57934;51.532;7.684;2022-07-17T13:49:20;1.75;;;0.93;;
70467;SDS011;57934;51.532;7.684;2022-07-17T13:51:47;2.95;;;1.10;;
70467;SDS011;57934;51.532;7.684;2022-07-17T13:54:13;4.03;;;0.95;;
70467;SDS011;57934;51.532;7.684;2022-07-17T13:56:40;2.30;;;1.20;;
70467;SDS011;57934;51.532;7.684;2022-07-17T13:59:06;3.65;;;0.90;;
70467;SDS011;57934;51.532;7.684;2022-07-17T14:01:32;2.78;;;1.20;;
70467;SDS011;57934;51.532;7.684;2022-07-17T14:04:00;3.38;;;1.25;;
70467;SDS011;57934;51.532;7.684;2022-07-17T14:06:26;3.63;;;1.20;;
70467;SDS011;57934;51.532;7.684;2022-07-17T14:08:52;4.40;;;1.20;;
70467;SDS011;57934;51.532;7.684;2022-07-17T14:11:18;2.80;;;0.88;;
70467;SDS011;57934;51.532;7.684;2022-07-17T14:13:45;3.80;;;1.10;;
70467;SDS011;57934;51.532;7.684;2022-07-17T14:16:10;2.00;;;0.88;;
70467;SDS011;57934;51.532;7.684;2022-07-17T14:18:36;5.03;;;1.20;;
70467;SDS011;57934;51.532;7.684;2022-07-17T14:21:22;3.22;;;0.88;;
70467;SDS011;57934;51.532;7.684;2022-07-17T14:23:48;5.30;;;1.02;;
70467;SDS011;57934;51.532;7.684;2022-07-17T14:26:15;2.78;;;0.95;;
70467;SDS011;57934;51.532;7.684;2022-07-17T14:28:41;3.08;;;0.90;;
70467;SDS011;57934;51.532;7.684;2022-07-17T14:31:07;3.88;;;1.10;;
70467;SDS011;57934;51.532;7.684;2022-07-17T14:33:33;3.60;;;1.23;;
70467;SDS011;57934;51.532;7.684;2022-07-17T14:35:59;3.35;;;0.90;;
70467;SDS011;57934;51.532;7.684;2022-07-17T14:38:25;3.78;;;0.85;;
70467;SDS011;57934;51.532;7.684;2022-07-17T14:40:51;4.63;;;1.30;;
70467;SDS011;57934;51.532;7.684;2022-07-17T14:43:17;4.63;;;1.20;;
70467;SDS011;57934;51.532;7.684;2022-07-17T14:45:43;3.15;;;1.00;;
70467;SDS011;57934;51.532;7.684;2022-07-17T14:48:09;2.88;;;1.00;;
70467;SDS011;57934;51.532;7.684;2022-07-17T14:50:34;4.00;;;1.30;;
70467;SDS011;57934;51.532;7.684;2022-07-17T14:53:00;3.90;;;1.20;;
70467;SDS011;57934;51.532;7.684;2022-07-17T14:55:26;3.28;;;1.05;;
70467;SDS011;57934;51.532;7.684;2022-07-17T14:57:53;5.63;;;1.35;;
70467;SDS011;57934;51.532;7.684;2022-07-17T15:00:19;4.97;;;1.23;;
70467;SDS011;57934;51.532;7.684;2022-07-17T15:02:45;3.97;;;1.30;;
70467;SDS011;57934;51.532;7.684;2022-07-17T15:05:11;3.75;;;1.10;;
70467;SDS011;57934;51.532;7.684;2022-07-17T15:07:37;3.20;;;0.70;;